createdAt,value
2023-03-17T00:04:38.261Z,4.65
2023-03-17T00:09:40.733Z,4.30
2023-03-17T00:14:44.475Z,5.10
2023-03-17T00:19:46.134Z,4.77
2023-03-17T00:24:47.758Z,4.40
2023-03-17T00:29:49.367Z,4.38
2023-03-17T00:34:52.573Z,4.93
2023-03-17T00:39:54.801Z,5.03
2023-03-17T00:44:57.198Z,5.03
2023-03-17T00:49:58.780Z,4.82
2023-03-17T00:55:00.774Z,4.95
2023-03-17T01:00:03.889Z,4.53
2023-03-17T01:05:07.142Z,4.88
2023-03-17T01:10:25.706Z,5.07
2023-03-17T01:15:31.544Z,4.55
2023-03-17T01:20:34.381Z,4.93
2023-03-17T01:25:38.176Z,4.97
2023-03-17T01:30:40.732Z,4.55
2023-03-17T01:35:43.788Z,4.15
2023-03-17T01:40:49.464Z,4.43
2023-03-17T01:46:29.253Z,5.15
2023-03-17T01:51:39.071Z,4.55
2023-03-17T01:56:42.224Z,3.90
2023-03-17T02:01:47.344Z,4.45
2023-03-17T02:06:57.798Z,4.05
2023-03-17T02:12:02.011Z,3.90
2023-03-17T02:17:03.877Z,4.32
2023-03-17T02:22:05.623Z,4.37
2023-03-17T02:27:12.914Z,4.18
2023-03-17T02:32:17.633Z,4.13
2023-03-17T02:37:19.956Z,4.07
2023-03-17T02:42:22.022Z,3.75
2023-03-17T02:47:23.754Z,3.63
2023-03-17T02:52:26.004Z,3.78
2023-03-17T02:57:27.561Z,4.05
2023-03-17T03:02:29.480Z,4.20
2023-03-17T03:07:31.243Z,3.97
2023-03-17T03:12:32.866Z,4.30
2023-03-17T03:17:34.495Z,3.88
2023-03-17T03:22:36.127Z,4.00
2023-03-17T03:27:37.694Z,3.97
2023-03-17T03:32:40.844Z,4.35
2023-03-17T03:37:42.420Z,3.97
2023-03-17T03:42:44.078Z,4.03
2023-03-17T03:47:46.028Z,4.03
2023-03-17T03:52:47.694Z,4.00
2023-03-17T03:57:49.252Z,4.73
2023-03-17T04:02:51.030Z,3.95
2023-03-17T04:07:52.905Z,4.30
2023-03-17T04:12:55.726Z,3.80
2023-03-17T04:17:57.330Z,3.73
2023-03-17T04:22:58.876Z,4.15
2023-03-17T04:28:00.464Z,4.20
2023-03-17T04:33:02.389Z,4.50
2023-03-17T04:38:04.031Z,4.50
2023-03-17T04:43:06.468Z,4.50
2023-03-17T04:48:08.060Z,4.30
2023-03-17T04:53:10.012Z,4.82
2023-03-17T04:58:15.520Z,4.20
2023-03-17T05:03:27.220Z,4.22
2023-03-17T05:08:29.485Z,3.80
2023-03-17T05:13:31.099Z,3.90
2023-03-17T05:18:32.801Z,4.13
2023-03-17T05:23:35.374Z,3.97
2023-03-17T05:28:37.277Z,4.43
2023-03-17T05:33:38.868Z,4.25
2023-03-17T05:38:40.456Z,4.22
2023-03-17T05:43:42.077Z,4.50
2023-03-17T05:48:43.699Z,4.82
2023-03-17T05:53:45.846Z,4.47
2023-03-17T05:58:47.533Z,4.13
2023-03-17T06:03:50.031Z,4.22
2023-03-17T06:08:51.699Z,4.35
2023-03-17T06:13:53.336Z,4.60
2023-03-17T06:18:54.966Z,4.32
2023-03-17T06:23:56.582Z,4.38
2023-03-17T06:28:58.134Z,4.50
2023-03-17T06:34:00.222Z,4.38
2023-03-17T06:39:02.151Z,4.35
2023-03-17T06:44:05.690Z,4.30
2023-03-17T06:49:08.078Z,4.25
2023-03-17T06:54:09.830Z,4.20
2023-03-17T06:59:11.421Z,4.35
2023-03-17T07:04:13.092Z,4.18
2023-03-17T07:09:15.557Z,4.05
2023-03-17T07:14:17.233Z,3.95
2023-03-17T07:19:18.825Z,3.60
2023-03-17T07:24:20.824Z,4.13
2023-03-17T07:29:22.739Z,4.10
2023-03-17T07:34:24.436Z,3.92
2023-03-17T07:39:26.056Z,4.00
2023-03-17T07:44:28.798Z,3.97
2023-03-17T07:49:40.839Z,4.50
2023-03-17T07:54:43.415Z,3.92
2023-03-17T07:59:45.539Z,5.38
2023-03-17T08:04:47.417Z,4.00
2023-03-17T08:09:49.072Z,4.18
2023-03-17T08:14:50.697Z,3.58
2023-03-17T08:19:53.251Z,3.38
2023-03-17T08:24:55.577Z,3.90
2023-03-17T08:29:57.544Z,3.78
2023-03-17T08:34:59.162Z,4.35
2023-03-17T08:40:01.356Z,3.80
2023-03-17T08:45:04.426Z,3.55
2023-03-17T08:50:09.863Z,3.30
2023-03-17T08:55:13.578Z,3.20
2023-03-17T09:00:20.291Z,3.22
2023-03-17T09:05:21.956Z,3.75
2023-03-17T09:10:23.708Z,3.55
2023-03-17T09:15:25.290Z,3.90
2023-03-17T09:20:27.018Z,3.30
2023-03-17T09:25:28.643Z,3.47
2023-03-17T09:30:31.208Z,3.30
2023-03-17T09:35:32.948Z,3.78
2023-03-17T09:40:48.051Z,3.22
2023-03-17T09:45:50.458Z,3.38
2023-03-17T09:51:07.904Z,3.30
2023-03-17T09:56:14.380Z,3.30
2023-03-17T10:01:16.255Z,3.20
2023-03-17T10:06:28.387Z,2.90
2023-03-17T10:11:46.699Z,3.00
2023-03-17T10:16:58.683Z,3.10
2023-03-17T10:22:07.060Z,3.53
2023-03-17T10:27:11.242Z,2.80
2023-03-17T10:32:13.828Z,3.13
2023-03-17T10:37:21.365Z,3.35
2023-03-17T10:42:29.105Z,2.95
2023-03-17T10:47:33.575Z,3.30
2023-03-17T10:52:38.387Z,3.20
2023-03-17T10:57:41.049Z,3.10
2023-03-17T11:02:45.999Z,3.40
2023-03-17T11:07:47.882Z,3.00
2023-03-17T11:12:55.457Z,3.28
2023-03-17T11:18:01.319Z,3.45
2023-03-17T11:23:18.115Z,3.13
2023-03-17T11:28:31.030Z,3.10
2023-03-17T11:33:41.794Z,3.03
2023-03-17T11:38:55.990Z,3.03
2023-03-17T11:44:03.203Z,3.10
2023-03-17T11:49:14.783Z,3.20
2023-03-17T11:54:37.357Z,3.35
2023-03-17T11:59:52.321Z,3.20
2023-03-17T12:05:01.096Z,3.03
2023-03-17T12:10:23.726Z,3.08
2023-03-17T12:15:38.362Z,3.40
2023-03-17T12:21:01.759Z,3.53
2023-03-17T12:26:06.957Z,3.67
2023-03-17T12:31:14.434Z,3.40
2023-03-17T12:36:17.033Z,4.38
2023-03-17T12:42:01.567Z,3.63
2023-03-17T12:47:09.289Z,3.97
2023-03-17T12:52:26.040Z,3.67
2023-03-17T12:57:30.126Z,3.97
2023-03-17T13:02:39.703Z,3.92
2023-03-17T13:07:56.254Z,3.88
2023-03-17T13:13:06.768Z,3.72
2023-03-17T13:18:14.397Z,3.92
2023-03-17T13:23:17.832Z,4.43
2023-03-17T13:28:34.837Z,4.45
2023-03-17T13:33:45.822Z,4.70
2023-03-17T13:39:05.166Z,4.82
2023-03-17T13:44:39.314Z,4.90
2023-03-17T13:49:41.139Z,4.30
2023-03-17T13:54:49.647Z,4.63
2023-03-17T13:59:51.271Z,5.00
2023-03-17T14:04:58.163Z,5.03
2023-03-17T14:10:02.664Z,5.43
2023-03-17T14:15:22.150Z,5.50
2023-03-17T14:20:25.967Z,5.57
2023-03-17T14:25:34.178Z,5.25
2023-03-17T14:30:36.766Z,5.10
2023-03-17T14:35:43.016Z,4.82
2023-03-17T14:40:44.944Z,5.20
2023-03-17T14:45:51.781Z,5.07
2023-03-17T14:50:55.511Z,5.03
2023-03-17T14:55:57.207Z,5.80
2023-03-17T15:01:06.803Z,5.15
2023-03-17T15:06:30.545Z,5.57
2023-03-17T15:11:41.805Z,5.47
2023-03-17T15:16:51.245Z,5.45
2023-03-17T15:21:52.934Z,5.57
2023-03-17T15:27:03.769Z,5.97
2023-03-17T15:32:20.463Z,5.95
2023-03-17T15:37:28.300Z,6.07
2023-03-17T15:42:32.613Z,5.90
2023-03-17T15:47:41.599Z,6.28
2023-03-17T15:52:43.863Z,6.57
2023-03-17T15:57:53.845Z,6.85
2023-03-17T16:02:59.633Z,6.07
2023-03-17T16:08:01.440Z,6.47
2023-03-17T16:13:03.213Z,6.32
2023-03-17T16:18:08.472Z,6.35
2023-03-17T16:23:17.289Z,6.38
2023-03-17T16:28:20.251Z,6.60
2023-03-17T16:33:33.843Z,6.88
2023-03-17T16:38:35.420Z,7.15
2023-03-17T16:43:37.942Z,7.30
2023-03-17T16:48:39.596Z,7.43
2023-03-17T16:53:41.175Z,6.95
2023-03-17T16:58:43.046Z,6.75
2023-03-17T17:03:45.384Z,6.60
2023-03-17T17:08:47.738Z,6.78
2023-03-17T17:13:50.054Z,6.97
2023-03-17T17:18:51.728Z,6.68
2023-03-17T17:23:53.716Z,6.50
2023-03-17T17:28:55.335Z,7.15
2023-03-17T17:33:56.948Z,6.85
2023-03-17T17:38:58.613Z,6.35
2023-03-17T17:44:00.234Z,6.90
2023-03-17T17:49:01.855Z,6.97
2023-03-17T17:54:03.580Z,6.97
2023-03-17T17:59:05.132Z,6.18
2023-03-17T18:04:07.347Z,6.45
2023-03-17T18:09:09.395Z,6.00
2023-03-17T18:14:11.343Z,6.25
2023-03-17T18:19:13.549Z,6.10
2023-03-17T18:24:15.200Z,6.45
2023-03-17T18:29:16.849Z,5.75
2023-03-17T18:34:43.300Z,6.50
2023-03-17T18:39:48.427Z,6.00
2023-03-17T18:44:54.640Z,5.75
2023-03-17T18:49:56.952Z,6.15
2023-03-17T18:54:58.933Z,6.10
2023-03-17T19:00:00.589Z,4.93
2023-03-17T19:05:02.333Z,6.40
2023-03-17T19:10:04.718Z,5.72
2023-03-17T19:15:07.590Z,4.95
2023-03-17T19:20:10.049Z,5.20
2023-03-17T19:25:12.197Z,5.22
2023-03-17T19:30:14.253Z,5.03
2023-03-17T19:35:16.074Z,5.25
2023-03-17T19:40:17.754Z,4.80
2023-03-17T19:45:19.390Z,4.93
2023-03-17T19:50:21.714Z,5.03
2023-03-17T19:55:26.960Z,4.70
2023-03-17T20:00:28.604Z,4.95
2023-03-17T20:05:30.287Z,4.40
2023-03-17T20:10:32.171Z,4.70
2023-03-17T20:15:34.469Z,4.82
2023-03-17T20:20:36.110Z,4.85
2023-03-17T20:25:37.695Z,4.88
2023-03-17T20:30:39.975Z,4.47
2023-03-17T20:35:44.033Z,4.55
2023-03-17T20:40:45.807Z,4.70
2023-03-17T20:45:47.370Z,4.90
2023-03-17T20:50:49.916Z,4.75
2023-03-17T20:55:51.526Z,4.90
2023-03-17T21:00:53.352Z,4.63
2023-03-17T21:05:55.252Z,4.50
2023-03-17T21:10:56.936Z,5.07
2023-03-17T21:15:59.228Z,4.47
2023-03-17T21:21:01.225Z,4.47
2023-03-17T21:26:02.925Z,4.43
2023-03-17T21:31:05.235Z,4.80
2023-03-17T21:36:07.347Z,4.70
2023-03-17T21:41:22.278Z,4.70
2023-03-17T21:46:25.324Z,4.40
2023-03-17T21:51:27.320Z,4.18
2023-03-17T21:56:29.592Z,4.70
2023-03-17T22:01:31.556Z,4.07
2023-03-17T22:06:33.492Z,4.72
2023-03-17T22:11:35.077Z,4.68
2023-03-17T22:16:36.791Z,4.53
2023-03-17T22:21:39.323Z,4.47
2023-03-17T22:26:40.953Z,4.22
2023-03-17T22:31:42.730Z,4.38
2023-03-17T22:36:44.350Z,4.40
2023-03-17T22:41:46.133Z,4.50
2023-03-17T22:46:47.742Z,3.97
2023-03-17T22:51:50.081Z,4.32
2023-03-17T22:56:51.752Z,4.28
2023-03-17T23:01:53.329Z,4.90
2023-03-17T23:06:55.007Z,4.22
2023-03-17T23:11:56.810Z,4.72
2023-03-17T23:16:58.531Z,4.55
2023-03-17T23:22:00.103Z,4.70
2023-03-17T23:27:01.768Z,4.53
2023-03-17T23:32:03.875Z,4.32
2023-03-17T23:37:05.543Z,4.13
2023-03-17T23:42:07.319Z,4.20
2023-03-17T23:47:09.670Z,4.22
2023-03-17T23:52:11.436Z,4.28
2023-03-17T23:57:13.354Z,3.95
